createdAt,value
2023-04-29T00:01:26.547Z,18.65
2023-04-29T00:04:30.629Z,17.73
2023-04-29T00:07:34.437Z,16.45
2023-04-29T00:10:41.469Z,16.30
2023-04-29T00:14:09.824Z,16.95
2023-04-29T00:17:23.611Z,15.38
2023-04-29T00:20:30.489Z,10.18
2023-04-29T00:23:36.724Z,12.57
2023-04-29T00:26:43.403Z,9.48
2023-04-29T00:29:46.750Z,12.45
2023-04-29T00:32:50.249Z,14.68
2023-04-29T00:35:53.618Z,10.38
2023-04-29T00:38:57.240Z,9.98
2023-04-29T00:42:04.321Z,12.32
2023-04-29T00:45:09.036Z,12.35
2023-04-29T00:48:12.537Z,9.60
2023-04-29T00:51:39.533Z,12.68
2023-04-29T00:54:42.996Z,10.68
2023-04-29T00:57:53.393Z,11.05
2023-04-29T01:01:22.797Z,11.05
2023-04-29T01:04:31.464Z,10.70
2023-04-29T01:07:58.055Z,11.63
2023-04-29T01:11:12.725Z,10.73
2023-04-29T01:14:20.901Z,12.05
2023-04-29T01:17:29.571Z,11.70
2023-04-29T01:20:34.218Z,14.13
2023-04-29T01:23:37.685Z,12.20
2023-04-29T01:26:57.465Z,14.90
2023-04-29T01:30:36.807Z,13.57
2023-04-29T01:33:49.120Z,13.52
2023-04-29T01:37:05.585Z,13.57
2023-04-29T01:40:27.198Z,13.10
2023-04-29T01:43:59.911Z,14.18
2023-04-29T01:47:04.307Z,13.90
2023-04-29T01:50:17.163Z,11.18
2023-04-29T01:53:20.562Z,13.15
2023-04-29T01:56:25.095Z,12.68
2023-04-29T01:59:52.443Z,12.43
2023-04-29T02:03:22.367Z,12.98
2023-04-29T02:06:32.989Z,12.60
2023-04-29T02:09:40.394Z,11.07
2023-04-29T02:12:53.579Z,11.23
2023-04-29T02:16:08.083Z,10.32
2023-04-29T02:19:18.117Z,12.68
2023-04-29T02:22:22.983Z,11.88
2023-04-29T02:25:29.669Z,10.30
2023-04-29T02:28:38.790Z,12.25
2023-04-29T02:31:45.605Z,9.05
2023-04-29T02:34:54.041Z,9.70
2023-04-29T02:38:02.456Z,11.15
2023-04-29T02:41:09.084Z,10.35
2023-04-29T02:44:16.607Z,9.82
2023-04-29T02:47:20.104Z,9.30
2023-04-29T02:50:23.708Z,9.32
2023-04-29T02:53:31.103Z,8.88
2023-04-29T02:56:37.342Z,8.95
2023-04-29T02:59:40.731Z,9.55
2023-04-29T03:02:47.208Z,8.55
2023-04-29T03:05:54.322Z,8.93
2023-04-29T03:08:59.857Z,9.38
2023-04-29T03:12:28.471Z,9.00
2023-04-29T03:15:31.901Z,8.60
2023-04-29T03:18:35.250Z,8.25
2023-04-29T03:21:48.056Z,8.55
2023-04-29T03:24:51.342Z,7.88
2023-04-29T03:28:00.373Z,5.70
2023-04-29T03:31:04.198Z,6.20
2023-04-29T03:34:17.451Z,7.03
2023-04-29T03:37:27.890Z,5.15
2023-04-29T03:40:46.208Z,4.85
2023-04-29T03:43:53.340Z,5.43
2023-04-29T03:47:21.362Z,4.72
2023-04-29T03:50:25.083Z,4.22
2023-04-29T03:53:33.637Z,3.55
2023-04-29T03:56:39.574Z,4.78
2023-04-29T03:59:43.368Z,3.40
2023-04-29T04:02:47.568Z,3.42
2023-04-29T04:05:52.231Z,3.80
2023-04-29T04:08:57.787Z,3.42
2023-04-29T04:12:07.327Z,3.42
2023-04-29T04:15:12.194Z,2.80
2023-04-29T04:18:16.426Z,2.92
2023-04-29T04:21:19.857Z,2.83
2023-04-29T04:24:32.061Z,3.13
2023-04-29T04:27:35.896Z,3.72
2023-04-29T04:30:43.750Z,2.85
2023-04-29T04:33:50.464Z,2.85
2023-04-29T04:36:58.156Z,2.63
2023-04-29T04:40:02.372Z,3.42
2023-04-29T04:43:10.217Z,2.90
2023-04-29T04:46:18.250Z,2.30
2023-04-29T04:49:40.079Z,2.92
2023-04-29T04:52:50.528Z,3.50
2023-04-29T04:56:20.692Z,3.58
2023-04-29T04:59:25.076Z,3.78
2023-04-29T05:02:28.818Z,4.60
2023-04-29T05:05:34.746Z,4.95
2023-04-29T05:12:28.130Z,3.55
2023-04-29T05:15:33.308Z,2.80
2023-04-29T05:18:43.074Z,2.70
2023-04-29T05:21:46.933Z,3.22
2023-04-29T05:24:57.241Z,2.92
2023-04-29T05:28:00.677Z,2.33
2023-04-29T05:34:14.949Z,2.80
2023-04-29T05:37:47.833Z,1.98
2023-04-29T05:41:29.700Z,2.40
2023-04-29T05:45:02.052Z,4.05
2023-04-29T05:48:23.614Z,3.05
2023-04-29T05:56:08.677Z,3.08
2023-04-29T05:59:19.144Z,3.45
2023-04-29T06:02:59.465Z,3.45
2023-04-29T06:06:19.853Z,4.78
2023-04-29T06:09:46.711Z,3.08
2023-04-29T06:12:53.390Z,2.22
2023-04-29T06:19:35.241Z,3.20
2023-04-29T06:22:54.420Z,2.78
2023-04-29T06:26:01.149Z,3.05
2023-04-29T06:29:05.278Z,3.72
2023-04-29T06:32:10.107Z,2.70
2023-04-29T06:35:13.943Z,2.40
2023-04-29T06:39:03.540Z,3.15
2023-04-29T06:42:33.348Z,3.28
2023-04-29T06:46:09.841Z,3.95
2023-04-29T06:49:20.518Z,3.75
2023-04-29T06:52:25.788Z,3.85
2023-04-29T06:55:29.645Z,2.88
2023-04-29T06:58:58.758Z,2.50
2023-04-29T07:02:05.223Z,3.25
2023-04-29T07:05:34.369Z,2.50
2023-04-29T07:08:41.146Z,6.18
2023-04-29T07:11:51.406Z,2.17
2023-04-29T07:14:59.283Z,2.22
2023-04-29T07:18:06.264Z,2.28
2023-04-29T07:24:26.956Z,2.92
2023-04-29T07:27:55.928Z,2.65
2023-04-29T07:34:48.461Z,2.03
2023-04-29T07:37:57.008Z,2.65
2023-04-29T07:41:14.851Z,2.50
2023-04-29T07:44:19.712Z,2.92
2023-04-29T07:47:37.998Z,1.75
2023-04-29T07:54:20.726Z,2.03
2023-04-29T07:57:26.984Z,2.50
2023-04-29T08:00:56.484Z,2.10
2023-04-29T08:04:06.253Z,1.90
2023-04-29T08:07:15.436Z,2.45
2023-04-29T08:10:23.286Z,3.30
2023-04-29T08:13:28.193Z,3.53
2023-04-29T08:16:36.061Z,2.97
2023-04-29T08:19:39.563Z,3.13
2023-04-29T08:22:50.355Z,3.60
2023-04-29T08:26:00.924Z,2.75
2023-04-29T08:29:48.373Z,5.97
2023-04-29T08:32:56.026Z,4.13
2023-04-29T08:36:04.695Z,3.05
2023-04-29T08:42:55.719Z,2.78
2023-04-29T08:46:00.447Z,2.20
2023-04-29T08:52:33.892Z,2.60
2023-04-29T08:56:02.330Z,2.88
2023-04-29T08:59:12.439Z,2.67
2023-04-29T09:02:27.418Z,3.30
2023-04-29T09:05:58.491Z,3.25
2023-04-29T09:16:07.025Z,2.17
2023-04-29T09:19:12.492Z,3.10
2023-04-29T09:22:49.557Z,2.60
2023-04-29T09:26:00.761Z,5.63
2023-04-29T09:29:16.400Z,2.90
2023-04-29T09:32:24.173Z,3.95
2023-04-29T09:35:30.625Z,3.53
2023-04-29T09:42:05.737Z,3.15
2023-04-29T09:52:10.639Z,2.90
2023-04-29T09:56:08.084Z,5.45
2023-04-29T09:59:33.406Z,4.38
2023-04-29T10:02:37.360Z,2.45
2023-04-29T10:05:41.346Z,2.50
2023-04-29T10:08:45.624Z,3.05
2023-04-29T10:11:57.873Z,1.85
2023-04-29T10:15:13.297Z,1.52
2023-04-29T10:18:27.430Z,1.67
2023-04-29T10:21:32.437Z,2.42
2023-04-29T10:24:38.844Z,2.97
2023-04-29T10:27:46.631Z,5.57
2023-04-29T10:31:03.496Z,2.97
2023-04-29T10:34:50.323Z,3.10
2023-04-29T10:38:00.151Z,2.40
2023-04-29T10:41:18.061Z,2.40
2023-04-29T10:44:22.036Z,2.25
2023-04-29T10:47:25.661Z,2.25
2023-04-29T10:50:34.036Z,3.20
2023-04-29T10:53:57.433Z,2.80
2023-04-29T10:57:00.920Z,3.58
2023-04-29T11:00:41.666Z,3.28
2023-04-29T11:04:02.688Z,4.82
2023-04-29T11:07:06.212Z,2.15
2023-04-29T11:10:09.738Z,3.35
2023-04-29T11:13:23.717Z,3.40
2023-04-29T11:16:30.662Z,4.18
2023-04-29T11:19:41.895Z,3.85
2023-04-29T11:22:54.065Z,4.75
2023-04-29T11:25:57.529Z,7.07
2023-04-29T11:29:01.880Z,8.50
2023-04-29T11:32:06.734Z,6.15
2023-04-29T11:35:15.095Z,6.47
2023-04-29T11:38:18.526Z,6.15
2023-04-29T11:41:25.172Z,4.70
2023-04-29T11:44:28.407Z,5.25
2023-04-29T11:47:32.146Z,6.60
2023-04-29T11:50:46.647Z,5.28
2023-04-29T11:53:50.126Z,5.45
2023-04-29T11:56:57.425Z,6.05
2023-04-29T12:00:01.856Z,8.48
2023-04-29T12:03:37.208Z,6.90
2023-04-29T12:06:42.375Z,5.40
2023-04-29T12:09:46.979Z,4.90
2023-04-29T12:12:50.479Z,4.45
2023-04-29T12:15:54.895Z,4.53
2023-04-29T12:18:59.372Z,5.35
2023-04-29T12:22:06.724Z,4.55
2023-04-29T12:25:12.013Z,4.30
2023-04-29T12:28:16.011Z,5.93
2023-04-29T12:31:19.214Z,4.32
2023-04-29T12:34:33.560Z,5.28
2023-04-29T12:37:36.845Z,9.38
2023-04-29T12:40:40.142Z,6.15
2023-04-29T12:43:44.039Z,4.32
2023-04-29T12:46:47.427Z,4.63
2023-04-29T12:49:51.107Z,3.92
2023-04-29T12:52:54.650Z,5.38
2023-04-29T12:55:58.569Z,9.18
2023-04-29T12:59:13.145Z,18.45
2023-04-29T13:02:17.079Z,3.67
2023-04-29T13:05:20.726Z,5.43
2023-04-29T13:08:24.201Z,6.97
2023-04-29T13:11:32.501Z,6.75
2023-04-29T13:14:39.788Z,6.93
2023-04-29T13:17:43.728Z,5.80
2023-04-29T13:23:51.150Z,6.25
2023-04-29T13:26:55.303Z,5.57
2023-04-29T13:29:58.787Z,7.20
2023-04-29T13:33:09.632Z,18.38
2023-04-29T13:36:16.293Z,19.20
2023-04-29T13:39:20.772Z,17.98
2023-04-29T13:42:26.908Z,8.48
2023-04-29T13:45:30.855Z,17.45
2023-04-29T13:49:10.408Z,20.70
2023-04-29T14:02:08.705Z,28.92
2023-04-29T14:04:51.533Z,26.67
2023-04-29T14:07:56.886Z,28.65
2023-04-29T14:11:00.653Z,27.83
2023-04-29T14:14:07.976Z,24.55
2023-04-29T14:20:14.981Z,22.02
2023-04-29T14:23:18.562Z,28.38
2023-04-29T14:26:28.380Z,19.77
2023-04-29T14:29:32.222Z,22.77
2023-04-29T14:32:38.429Z,22.02
2023-04-29T14:35:45.943Z,24.95
2023-04-29T14:42:15.384Z,26.38
2023-04-29T14:45:19.218Z,25.88
2023-04-29T14:48:22.862Z,24.40
2023-04-29T14:51:28.135Z,24.80
2023-04-29T14:54:33.542Z,23.42
2023-04-29T14:57:40.038Z,22.85
2023-04-29T15:01:08.788Z,24.30
2023-04-29T15:04:17.864Z,22.25
2023-04-29T15:08:42.872Z,19.55
2023-04-29T15:12:42.602Z,18.77
2023-04-29T15:25:08.196Z,25.38
2023-04-29T15:28:11.596Z,17.65
2023-04-29T15:31:14.988Z,19.13
2023-04-29T15:34:18.242Z,17.02
2023-04-29T15:37:23.159Z,16.02
2023-04-29T15:40:27.439Z,12.27
2023-04-29T15:43:33.268Z,12.48
2023-04-29T15:46:37.306Z,11.18
2023-04-29T15:49:40.737Z,13.27
2023-04-29T15:52:44.475Z,12.25
2023-04-29T15:55:51.267Z,13.13
2023-04-29T15:59:00.623Z,13.93
2023-04-29T16:12:07.434Z,11.95
2023-04-29T16:15:11.393Z,11.30
2023-04-29T16:18:40.463Z,11.82
2023-04-29T16:21:47.040Z,11.88
2023-04-29T16:24:53.394Z,9.95
2023-04-29T16:28:12.126Z,10.90
2023-04-29T16:31:16.382Z,12.00
2023-04-29T16:34:21.644Z,10.13
2023-04-29T16:37:27.900Z,13.40
2023-04-29T16:40:31.385Z,11.45
2023-04-29T16:43:35.079Z,12.38
2023-04-29T16:46:40.853Z,14.00
2023-04-29T16:49:44.600Z,14.90
2023-04-29T16:52:50.258Z,15.35
2023-04-29T16:55:53.639Z,16.80
2023-04-29T16:58:57.850Z,17.33
2023-04-29T17:02:04.652Z,17.27
2023-04-29T17:05:09.713Z,15.85
2023-04-29T17:08:20.951Z,12.52
2023-04-29T17:11:27.923Z,12.35
2023-04-29T17:14:31.373Z,12.25
2023-04-29T17:17:47.337Z,10.30
2023-04-29T17:20:56.394Z,8.70
2023-04-29T17:23:59.720Z,9.82
2023-04-29T17:27:03.020Z,10.23
2023-04-29T17:30:09.959Z,9.85
2023-04-29T17:33:14.828Z,9.45
2023-04-29T17:36:18.227Z,12.25
2023-04-29T17:39:28.264Z,13.48
2023-04-29T17:42:31.642Z,15.25
2023-04-29T17:45:34.991Z,15.65
2023-04-29T17:48:44.129Z,14.93
2023-04-29T17:51:47.375Z,11.82
2023-04-29T17:54:51.068Z,9.25
2023-04-29T17:57:57.104Z,8.43
2023-04-29T18:01:00.335Z,7.90
2023-04-29T18:04:04.314Z,8.35
2023-04-29T18:07:08.020Z,8.15
2023-04-29T18:10:23.548Z,8.38
2023-04-29T18:13:27.338Z,8.40
2023-04-29T18:16:30.818Z,7.60
2023-04-29T18:19:34.245Z,8.50
2023-04-29T18:22:37.643Z,7.93
2023-04-29T18:25:41.444Z,7.45
2023-04-29T18:28:47.085Z,7.25
2023-04-29T18:31:50.417Z,7.20
2023-04-29T18:34:53.688Z,7.95
2023-04-29T18:38:02.378Z,8.82
2023-04-29T18:41:07.268Z,7.93
2023-04-29T18:44:14.033Z,7.07
2023-04-29T18:47:18.651Z,7.72
2023-04-29T18:50:22.172Z,6.40
2023-04-29T18:53:25.492Z,5.90
2023-04-29T18:56:28.841Z,6.95
2023-04-29T18:59:32.375Z,6.38
2023-04-29T19:02:35.690Z,7.38
2023-04-29T19:05:39.147Z,8.85
2023-04-29T19:08:42.402Z,12.38
2023-04-29T19:11:45.679Z,10.45
2023-04-29T19:14:49.129Z,9.45
2023-04-29T19:17:52.431Z,9.00
2023-04-29T19:20:56.782Z,8.15
2023-04-29T19:24:00.523Z,7.95
2023-04-29T19:27:07.496Z,7.65
2023-04-29T19:30:11.007Z,7.97
2023-04-29T19:33:17.831Z,6.90
2023-04-29T19:36:22.146Z,6.13
2023-04-29T19:39:25.456Z,7.40
2023-04-29T19:42:28.783Z,6.40
2023-04-29T19:45:32.068Z,7.47
2023-04-29T19:48:35.898Z,7.82
2023-04-29T19:51:39.157Z,6.75
2023-04-29T19:54:42.583Z,7.20
2023-04-29T19:57:46.020Z,7.07
2023-04-29T20:00:49.534Z,6.65
2023-04-29T20:03:53.024Z,6.32
2023-04-29T20:06:56.407Z,6.28
2023-04-29T20:09:59.660Z,6.35
2023-04-29T20:13:02.968Z,6.82
2023-04-29T20:16:07.253Z,5.88
2023-04-29T20:19:10.653Z,9.57
2023-04-29T20:22:14.179Z,6.32
2023-04-29T20:25:17.547Z,5.35
2023-04-29T20:28:20.904Z,5.85
2023-04-29T20:31:24.266Z,5.82
2023-04-29T20:34:27.550Z,5.38
2023-04-29T20:37:32.412Z,5.60
2023-04-29T20:40:35.793Z,6.70
2023-04-29T20:43:39.148Z,6.95
2023-04-29T20:46:42.860Z,7.18
2023-04-29T20:49:46.091Z,7.00
2023-04-29T20:52:50.077Z,7.55
2023-04-29T20:55:53.456Z,7.75
2023-04-29T20:58:59.301Z,8.80
2023-04-29T21:02:02.635Z,8.38
2023-04-29T21:05:06.711Z,8.48
2023-04-29T21:08:12.943Z,6.97
2023-04-29T21:11:16.280Z,6.93
2023-04-29T21:14:19.829Z,7.50
2023-04-29T21:17:23.253Z,10.90
2023-04-29T21:20:26.681Z,7.85
2023-04-29T21:23:30.212Z,11.50
2023-04-29T21:26:33.571Z,12.05
2023-04-29T21:29:41.309Z,12.18
2023-04-29T21:32:44.607Z,8.55
2023-04-29T21:35:51.915Z,8.82
2023-04-29T21:39:00.975Z,8.43
2023-04-29T21:42:04.976Z,10.05
2023-04-29T21:45:18.219Z,7.82
2023-04-29T21:48:22.680Z,8.68
2023-04-29T21:51:27.111Z,6.72
2023-04-29T21:54:30.392Z,5.68
2023-04-29T21:57:43.429Z,5.72
2023-04-29T22:00:58.791Z,5.25
2023-04-29T22:04:02.145Z,5.10
2023-04-29T22:07:05.447Z,6.10
2023-04-29T22:10:09.245Z,5.90
2023-04-29T22:13:12.647Z,5.95
2023-04-29T22:16:16.300Z,6.90
2023-04-29T22:19:19.653Z,6.63
2023-04-29T22:22:22.901Z,8.80
2023-04-29T22:25:26.586Z,8.60
2023-04-29T22:28:30.255Z,9.27
2023-04-29T22:31:33.661Z,7.32
2023-04-29T22:34:37.470Z,7.45
2023-04-29T22:37:41.592Z,6.32
2023-04-29T22:40:53.448Z,8.18
2023-04-29T22:43:57.844Z,6.25
2023-04-29T22:47:01.865Z,7.13
2023-04-29T22:50:05.841Z,6.88
2023-04-29T22:53:09.206Z,6.53
2023-04-29T22:56:12.622Z,6.45
2023-04-29T22:59:16.298Z,6.80
2023-04-29T23:02:19.580Z,7.38
2023-04-29T23:05:23.093Z,7.97
2023-04-29T23:08:27.840Z,9.00
2023-04-29T23:11:32.674Z,7.88
2023-04-29T23:14:36.080Z,8.23
2023-04-29T23:17:40.425Z,9.57
2023-04-29T23:20:51.128Z,7.28
2023-04-29T23:23:55.148Z,7.75
2023-04-29T23:26:58.929Z,7.45
2023-04-29T23:30:03.044Z,8.00
2023-04-29T23:33:06.420Z,9.27
2023-04-29T23:36:09.824Z,10.60
2023-04-29T23:39:13.734Z,8.85
2023-04-29T23:42:16.931Z,12.07
2023-04-29T23:45:25.123Z,14.07
2023-04-29T23:48:29.169Z,12.85
2023-04-29T23:51:33.645Z,13.40
2023-04-29T23:54:37.396Z,11.32
2023-04-29T23:57:42.631Z,10.80
